Time;durP1;ratioP1;P1;durP2;ratioP2;P2;SDS_P1;SDS_P2;PMS_P1;PMS_P2;Temp;Humidity;BMP_temperature;BMP_pressure;BME280_temperature;BME280_humidity;BME280_pressure;Samples;Min_cycle;Max_cycle;Signal;HPM_P1;HPM_P2
2022/04/06 00:00:10;;;;;;;;;2.75;1.00;;;;;16.64;45.80;100786.38;5084754;28;61852;-77
2022/04/06 00:02:38;;;;;;;;;1.75;1.75;;;;;16.71;46.05;100774.13;5084737;28;61692;-77
2022/04/06 00:05:04;;;;;;;;;1.00;1.00;;;;;16.56;45.50;100778.31;5085094;28;61869;-77
2022/04/06 00:07:30;;;;;;;;;0.00;0.00;;;;;16.55;45.87;100780.91;5084151;28;61860;-77
2022/04/06 00:09:55;;;;;;;;;2.50;1.50;;;;;16.54;46.15;100780.03;5084325;28;61961;-77
2022/04/06 00:12:21;;;;;;;;;1.75;1.25;;;;;16.62;46.07;100774.84;5085166;28;61820;-77
2022/04/06 00:14:47;;;;;;;;;0.50;0.50;;;;;16.65;45.71;100769.63;5083112;28;61919;-77
2022/04/06 00:17:13;;;;;;;;;2.25;1.00;;;;;16.65;45.71;100771.41;5084159;28;62304;-77
2022/04/06 00:19:39;;;;;;;;;1.25;1.00;;;;;16.64;45.38;100770.47;5084670;28;61992;-77
2022/04/06 00:22:13;;;;;;;;;1.00;1.00;;;;;16.73;45.61;100769.75;5083883;28;61912;-77
2022/04/06 00:24:39;;;;;;;;;1.25;1.00;;;;;16.68;45.14;100760.84;5084835;28;61871;-77
2022/04/06 00:27:04;;;;;;;;;0.25;0.00;;;;;16.63;45.09;100760.75;5099843;27;64036;-77
2022/04/06 00:29:30;;;;;;;;;1.00;1.00;;;;;16.62;45.28;100760.72;5083073;28;62118;-77
2022/04/06 00:31:55;;;;;;;;;2.00;1.00;;;;;16.62;45.34;100758.06;5082905;28;61905;-78
2022/04/06 00:35:28;;;;;;;;;2.50;1.00;;;;;16.61;45.24;100756.31;5084673;27;62101;-78
2022/04/06 00:37:06;;;;;;;;;2.00;1.00;;;;;16.62;45.62;100755.41;5083533;27;61740;-77
2022/04/06 00:39:32;;;;;;;;;1.00;0.00;;;;;16.59;46.06;100748.31;5083940;27;62161;-77
2022/04/06 00:41:57;;;;;;;;;1.00;1.00;;;;;16.56;46.12;100742.97;5084582;28;61821;-77
2022/04/06 00:44:22;;;;;;;;;1.50;1.00;;;;;16.52;46.59;100743.75;5084613;27;61918;-77
2022/04/06 00:46:48;;;;;;;;;1.50;1.00;;;;;16.49;46.36;100741.94;5083455;27;61931;-77
2022/04/06 00:49:14;;;;;;;;;0.25;0.25;;;;;16.39;46.84;100737.34;5084243;27;61948;-77
2022/04/06 00:51:45;;;;;;;;;1.00;1.00;;;;;16.26;47.19;100743.22;5083851;28;61749;-77
2022/04/06 00:54:16;;;;;;;;;1.00;1.00;;;;;16.23;47.44;100741.41;5084458;27;61762;-77
2022/04/06 00:56:43;;;;;;;;;3.00;2.00;;;;;16.19;47.88;100741.31;5083491;27;62616;-77
2022/04/06 00:59:10;;;;;;;;;0.00;0.00;;;;;16.15;47.83;100735.97;5083693;27;61761;-77
2022/04/06 01:01:36;;;;;;;;;2.25;2.25;;;;;16.13;47.87;100739.44;5084023;27;61873;-77
2022/04/06 01:04:02;;;;;;;;;1.00;0.00;;;;;16.10;47.80;100734.97;5083017;27;61852;-78
2022/04/06 01:06:28;;;;;;;;;3.50;2.00;;;;;16.04;48.22;100731.28;5083450;27;61778;-77
2022/04/06 01:08:53;;;;;;;;;3.50;1.00;;;;;16.02;48.06;100725.06;5083512;27;62045;-77
2022/04/06 01:11:20;;;;;;;;;1.75;1.75;;;;;15.99;48.36;100728.56;5084307;28;61825;-77
2022/04/06 01:13:46;;;;;;;;;1.00;1.00;;;;;16.00;48.38;100730.31;5084557;27;61845;-77
2022/04/06 01:16:11;;;;;;;;;2.50;1.00;;;;;15.95;48.45;100721.41;5081152;28;65002;-78
2022/04/06 01:18:37;;;;;;;;;1.00;1.00;;;;;15.82;48.70;100716.72;5084114;27;61769;-77
2022/04/06 01:21:03;;;;;;;;;5.25;2.00;;;;;15.77;48.79;100716.63;5083401;27;62204;-77
2022/04/06 01:23:30;;;;;;;;;1.75;1.75;;;;;15.76;48.98;100712.16;5082450;28;61840;-77
2022/04/06 01:25:56;;;;;;;;;3.00;2.00;;;;;15.66;48.97;100712.78;5098897;27;63913;-77
2022/04/06 01:28:21;;;;;;;;;0.00;0.00;;;;;15.67;48.95;100709.28;5082599;28;61942;-77
2022/04/06 01:30:47;;;;;;;;;3.75;0.25;;;;;15.68;48.87;100709.34;5098729;27;61828;-77
2022/04/06 01:33:13;;;;;;;;;2.00;0.25;;;;;15.57;48.98;100705.53;5084163;28;61832;-77
2022/04/06 01:35:41;;;;;;;;;2.00;0.25;;;;;15.49;49.22;100707.13;5083091;28;61827;-77
2022/04/06 01:38:06;;;;;;;;;2.00;1.50;;;;;15.48;49.40;100718.56;5082782;27;62347;-77
2022/04/06 01:40:33;;;;;;;;;0.25;0.25;;;;;15.47;48.92;100712.38;5115738;27;61765;-77
2022/04/06 01:42:58;;;;;;;;;3.25;1.00;;;;;15.34;49.51;100712.97;5083886;28;62133;-77
2022/04/06 01:45:24;;;;;;;;;1.00;1.00;;;;;15.34;49.45;100703.25;5098432;27;63818;-77
2022/04/06 01:47:49;;;;;;;;;3.00;1.00;;;;;15.33;49.53;100706.75;5099404;27;61911;-77
2022/04/06 01:52:58;;;;;;;;;3.00;1.50;;;;;15.22;49.57;100697.69;5083516;28;61951;-77
2022/04/06 01:55:24;;;;;;;;;2.00;1.00;;;;;15.21;49.94;100693.25;5081148;28;63851;-77
2022/04/06 01:57:49;;;;;;;;;0.00;0.00;;;;;15.18;49.79;100693.16;5083352;27;61940;-77
2022/04/06 02:00:17;;;;;;;;;4.50;1.25;;;;;15.18;49.60;100687.88;5082830;27;61858;-77
2022/04/06 02:02:49;;;;;;;;;0.00;0.00;;;;;15.13;49.75;100689.53;5083369;27;62007;-77
2022/04/06 02:05:16;;;;;;;;;1.00;1.00;;;;;15.16;49.45;100688.72;5082563;27;62993;-77
2022/04/06 02:07:46;;;;;;;;;1.00;1.00;;;;;15.09;49.78;100703.53;5082784;27;62119;-77
2022/04/06 02:10:13;;;;;;;;;0.00;0.00;;;;;15.02;49.86;100696.31;5082711;28;61981;-77
2022/04/06 02:12:39;;;;;;;;;1.75;1.00;;;;;15.02;50.04;100688.38;5081940;28;61856;-78
2022/04/06 02:15:05;;;;;;;;;2.75;1.00;;;;;14.91;50.30;100691.66;5081980;27;62881;-78
2022/04/06 02:17:31;;;;;;;;;2.00;1.00;;;;;14.97;50.22;100690.00;5082910;27;61749;-77
2022/04/06 02:19:57;;;;;;;;;1.75;1.00;;;;;15.02;49.93;100683.97;5082907;27;61887;-77
2022/04/06 02:22:23;;;;;;;;;4.00;1.00;;;;;15.11;49.65;100691.25;5081356;28;61754;-77
2022/04/06 02:24:49;;;;;;;;;0.50;0.50;;;;;15.11;49.35;100672.75;5080864;28;64899;-77
2022/04/06 02:27:16;;;;;;;;;2.75;1.00;;;;;15.15;49.55;100674.59;5082407;27;61862;-77
2022/04/06 02:29:43;;;;;;;;;0.25;0.00;;;;;15.21;49.42;100674.75;5081219;28;62118;-77
2022/04/06 02:32:09;;;;;;;;;0.00;0.00;;;;;15.24;49.25;100672.16;5083042;28;62059;-77
2022/04/06 02:34:34;;;;;;;;;2.00;1.00;;;;;15.28;49.13;100659.91;5082390;27;61756;-77
2022/04/06 02:37:01;;;;;;;;;0.25;0.25;;;;;15.33;49.01;100659.16;5082067;27;61827;-77
2022/04/06 02:39:27;;;;;;;;;0.00;0.00;;;;;15.43;48.82;100660.25;5082263;27;62108;-77
2022/04/06 02:41:53;;;;;;;;;0.25;0.25;;;;;15.42;48.81;100655.81;5098049;27;61981;-77
2022/04/06 02:44:18;;;;;;;;;0.75;0.75;;;;;15.47;48.66;100659.47;5081725;28;61962;-77
2022/04/06 02:46:45;;;;;;;;;1.00;1.00;;;;;15.33;48.57;100655.63;5082458;28;61711;-77
2022/04/06 02:49:11;;;;;;;;;0.00;0.00;;;;;15.41;48.92;100658.44;5081383;28;61925;-77
2022/04/06 02:51:36;;;;;;;;;0.50;0.50;;;;;15.46;48.76;100651.50;5081963;28;61784;-78
2022/04/06 02:54:02;;;;;;;;;0.00;0.00;;;;;15.44;49.00;100653.22;5082040;28;61970;-77
2022/04/06 02:56:28;;;;;;;;;1.00;0.00;;;;;15.47;48.51;100648.00;5081946;28;61928;-77
2022/04/06 02:58:54;;;;;;;;;0.00;0.00;;;;;15.40;48.93;100643.41;5097962;27;61917;-78
2022/04/06 03:01:20;;;;;;;;;1.00;1.00;;;;;15.43;48.74;100641.75;5082070;28;61799;-77
2022/04/06 03:03:46;;;;;;;;;0.00;0.00;;;;;15.46;48.79;100643.56;5097323;27;64072;-77
2022/04/06 03:06:11;;;;;;;;;0.00;0.00;;;;;15.46;48.75;100632.97;5098016;27;61893;-77
2022/04/06 03:08:37;;;;;;;;;2.00;0.00;;;;;15.43;48.67;100639.09;5097078;27;62180;-77
2022/04/06 03:11:03;;;;;;;;;0.50;0.50;;;;;15.37;48.51;100638.97;5082034;28;61983;-77
2022/04/06 03:13:28;;;;;;;;;1.00;0.00;;;;;15.40;48.94;100635.47;5081561;28;61747;-77
2022/04/06 03:15:54;;;;;;;;;2.00;0.00;;;;;15.44;48.99;100627.66;5082154;28;61872;-77
2022/04/06 03:18:20;;;;;;;;;0.00;0.00;;;;;15.40;48.92;100616.97;5082017;28;62113;-78
2022/04/06 03:20:46;;;;;;;;;1.00;0.00;;;;;15.45;48.54;100615.34;5097504;27;61847;-78
2022/04/06 03:23:12;;;;;;;;;1.75;1.00;;;;;15.46;48.47;100615.34;5081170;28;61812;-78
2022/04/06 03:25:37;;;;;;;;;1.00;0.00;;;;;15.44;48.56;100614.41;5081453;28;61728;-78
2022/04/06 03:28:03;;;;;;;;;0.50;0.00;;;;;15.46;48.62;100604.75;5081013;28;62321;-78
2022/04/06 03:30:28;;;;;;;;;0.00;0.00;;;;;15.50;48.42;100609.25;5082091;28;61838;-78
2022/04/06 03:32:54;;;;;;;;;0.00;0.00;;;;;15.60;48.32;100607.72;5081437;28;61879;-78
2022/04/06 03:35:20;;;;;;;;;0.00;0.00;;;;;15.60;48.45;100607.72;5081663;28;61969;-78
2022/04/06 03:37:45;;;;;;;;;0.00;0.00;;;;;15.53;48.35;100606.72;5081365;28;61691;-78
2022/04/06 03:40:12;;;;;;;;;0.00;0.00;;;;;15.52;48.64;100601.38;5096715;27;61804;-78
2022/04/06 03:42:39;;;;;;;;;0.00;0.00;;;;;15.49;48.54;100596.03;5081216;28;62664;-78
2022/04/06 03:45:05;;;;;;;;;0.00;0.00;;;;;15.51;48.82;100600.50;5081716;27;61791;-77
2022/04/06 03:47:32;;;;;;;;;0.50;0.00;;;;;15.58;48.38;100596.22;5097263;27;61725;-77
2022/04/06 03:49:59;;;;;;;;;0.00;0.00;;;;;15.60;48.37;100601.53;5081840;28;61858;-77
2022/04/06 03:52:25;;;;;;;;;0.00;0.00;;;;;15.60;48.22;100590.97;5080493;27;61940;-77
2022/04/06 03:54:51;;;;;;;;;0.00;0.00;;;;;15.49;48.61;100593.38;5081674;27;61808;-78
2022/04/06 03:57:17;;;;;;;;;0.00;0.00;;;;;15.56;48.57;100594.41;5080433;28;61981;-78
2022/04/06 03:59:42;;;;;;;;;0.00;0.00;;;;;15.50;48.50;100590.75;5081561;27;62138;-78
2022/04/06 04:02:08;;;;;;;;;0.00;0.00;;;;;15.54;48.64;100589.06;5080491;27;62363;-78
2022/04/06 04:04:33;;;;;;;;;0.00;0.00;;;;;15.54;48.63;100594.38;5081443;27;61893;-78
2022/04/06 04:06:59;;;;;;;;;0.00;0.00;;;;;15.59;48.75;100592.69;5080676;27;62461;-78
2022/04/06 04:09:24;;;;;;;;;0.75;0.00;;;;;15.53;48.63;100592.56;5081132;27;62159;-78
2022/04/06 04:11:49;;;;;;;;;0.00;0.00;;;;;15.52;48.66;100585.50;5080716;27;61844;-78
2022/04/06 04:14:15;;;;;;;;;0.00;0.00;;;;;15.49;48.79;100591.63;5081418;27;62060;-78
2022/04/06 04:16:45;;;;;;;;;1.50;0.00;;;;;15.54;48.79;100591.72;5096849;27;61937;-78
2022/04/06 04:19:10;;;;;;;;;0.00;0.00;;;;;15.56;48.59;100586.47;5081674;28;61733;-77
2022/04/06 04:21:35;;;;;;;;;0.00;0.00;;;;;15.58;48.59;100582.97;5079663;27;61694;-78
2022/04/06 04:24:03;;;;;;;;;1.00;0.00;;;;;15.53;48.57;100579.34;5096781;27;61944;-77
2022/04/06 04:26:29;;;;;;;;;0.25;0.25;;;;;15.54;48.61;100584.66;5081297;27;61931;-77
2022/04/06 04:28:55;;;;;;;;;1.00;1.00;;;;;15.60;48.35;100581.25;5079934;28;61769;-77
2022/04/06 04:31:21;;;;;;;;;0.50;0.00;;;;;15.61;48.53;100583.03;5080447;27;61872;-77
2022/04/06 04:33:46;;;;;;;;;2.00;0.25;;;;;15.59;48.45;100574.16;5096652;27;61740;-77
2022/04/06 04:36:12;;;;;;;;;0.00;0.00;;;;;15.54;48.40;100574.09;5081237;27;62231;-77
2022/04/06 04:38:37;;;;;;;;;0.00;0.00;;;;;15.62;48.56;100574.25;5079089;28;61764;-77
2022/04/06 04:41:06;;;;;;;;;1.00;0.00;;;;;15.63;48.56;100565.44;5093117;27;63575;-78
2022/04/06 04:43:32;;;;;;;;;0.00;0.00;;;;;15.60;48.37;100575.97;5100263;27;61886;-78
2022/04/06 04:45:58;;;;;;;;;0.00;0.00;;;;;15.67;48.26;100569.03;5100435;27;62015;-78
2022/04/06 04:48:23;;;;;;;;;1.75;0.00;;;;;15.65;48.30;100562.84;5100326;27;61878;-78
2022/04/06 04:50:49;;;;;;;;;0.50;0.00;;;;;15.71;47.77;100555.03;5083534;27;62229;-78
2022/04/06 04:53:14;;;;;;;;;0.00;0.00;;;;;15.72;48.09;100541.88;5083735;28;62199;-78
2022/04/06 04:55:41;;;;;;;;;0.00;0.00;;;;;15.71;47.49;100542.72;5084422;27;61993;-77
2022/04/06 04:58:06;;;;;;;;;0.00;0.00;;;;;15.70;47.70;100540.91;5084638;28;61802;-78
2022/04/06 05:00:32;;;;;;;;;0.75;0.00;;;;;15.76;47.66;100540.16;5083564;27;64899;-78
2022/04/06 05:02:57;;;;;;;;;0.00;0.00;;;;;15.81;47.70;100542.88;5063511;28;61756;-77
2022/04/06 05:05:23;;;;;;;;;1.50;0.25;;;;;15.79;47.48;100547.25;5064095;28;61871;-77
2022/04/06 05:07:49;;;;;;;;;0.00;0.00;;;;;15.77;47.44;100543.69;5062082;28;62140;-77
2022/04/06 05:10:15;;;;;;;;;0.00;0.00;;;;;15.81;47.33;100548.16;5069885;28;63729;-79
2022/04/06 05:12:41;;;;;;;;;0.00;0.00;;;;;15.79;47.65;100548.16;5099239;27;61912;-80
2022/04/06 05:15:08;;;;;;;;;0.00;0.00;;;;;15.78;47.75;100545.47;5089825;27;61244;-80
2022/04/06 05:17:34;;;;;;;;;1.00;0.00;;;;;15.84;47.87;100548.25;5082960;28;61830;-80
2022/04/06 05:20:00;;;;;;;;;0.00;0.00;;;;;15.86;47.53;100551.81;5087050;27;61731;-80
2022/04/06 05:22:25;;;;;;;;;0.00;0.00;;;;;15.90;47.66;100541.31;5089418;27;61774;-80
2022/04/06 05:24:51;;;;;;;;;0.00;0.00;;;;;15.91;47.49;100536.91;5089773;27;61769;-79
2022/04/06 05:27:16;;;;;;;;;0.00;0.00;;;;;15.87;47.44;100535.06;5088498;28;61769;-79
2022/04/06 05:29:42;;;;;;;;;0.00;0.00;;;;;15.89;47.73;100542.16;5089286;27;61658;-79
2022/04/06 05:32:08;;;;;;;;;0.00;0.00;;;;;15.91;47.43;100558.97;5104214;27;61999;-79
2022/04/06 05:34:35;;;;;;;;;1.00;0.50;;;;;15.94;47.65;100543.16;5084895;28;61759;-78
2022/04/06 05:37:02;;;;;;;;;1.00;1.00;;;;;15.97;47.88;100539.66;5085916;27;62131;-78
2022/04/06 05:39:27;;;;;;;;;1.25;1.00;;;;;16.01;47.61;100548.56;5083121;27;62148;-78
2022/04/06 05:41:53;;;;;;;;;2.00;2.00;;;;;16.01;47.66;100551.22;5097438;27;61862;-79
2022/04/06 05:44:18;;;;;;;;;2.50;2.00;;;;;15.93;47.93;100551.94;5084602;27;61723;-78
2022/04/06 05:46:44;;;;;;;;;0.75;0.75;;;;;15.92;47.82;100550.16;5083720;27;62057;-78
2022/04/06 05:49:10;;;;;;;;;1.00;1.00;;;;;15.89;47.82;100538.63;5082281;28;61931;-78
2022/04/06 05:51:40;;;;;;;;;2.25;1.00;;;;;15.91;48.34;100539.53;5081485;27;61800;-77
2022/04/06 05:54:07;;;;;;;;;1.00;1.00;;;;;15.99;48.09;100542.34;5089343;27;61781;-77
2022/04/06 05:56:34;;;;;;;;;2.00;1.00;;;;;15.98;48.04;100540.56;5080366;28;62019;-78
2022/04/06 05:58:59;;;;;;;;;5.00;3.00;;;;;15.89;48.25;100531.56;5085843;27;61903;-77
2022/04/06 06:01:25;;;;;;;;;5.25;3.25;;;;;15.89;48.38;100546.56;5084790;27;61802;-79
2022/04/06 06:03:50;;;;;;;;;3.00;3.00;;;;;15.95;48.40;100551.97;5082515;28;62470;-79
2022/04/06 06:06:16;;;;;;;;;5.50;5.00;;;;;15.94;48.31;100547.56;5082593;28;62023;-79
2022/04/06 06:08:42;;;;;;;;;2.00;1.75;;;;;15.91;48.52;100548.38;5081191;28;62802;-79
2022/04/06 06:11:08;;;;;;;;;3.00;3.00;;;;;15.91;48.55;100542.19;5077143;27;61905;-77
2022/04/06 06:13:33;;;;;;;;;2.00;2.00;;;;;15.95;48.75;100542.28;5079530;27;61810;-78
2022/04/06 06:16:02;;;;;;;;;2.50;2.00;;;;;15.94;48.69;100544.91;5082278;28;62103;-78
2022/04/06 06:18:28;;;;;;;;;2.00;2.00;;;;;15.86;48.66;100536.81;5080153;28;63798;-78
2022/04/06 06:21:00;;;;;;;;;3.00;2.00;;;;;15.91;48.61;100536.91;5080444;28;62197;-78
2022/04/06 06:23:27;;;;;;;;;4.00;2.25;;;;;15.82;48.99;100536.72;5082295;28;61941;-78
2022/04/06 06:25:52;;;;;;;;;3.75;1.75;;;;;15.89;48.76;100531.56;5089756;27;61933;-79
2022/04/06 06:28:18;;;;;;;;;2.00;2.00;;;;;15.92;48.98;100531.66;5081589;28;61787;-78
2022/04/06 06:30:44;;;;;;;;;2.00;2.00;;;;;15.87;48.94;100522.72;5082284;27;61820;-80
2022/04/06 06:33:09;;;;;;;;;5.00;2.00;;;;;15.87;48.75;100522.72;5082802;28;61908;-79
2022/04/06 06:35:34;;;;;;;;;7.00;3.00;;;;;15.98;48.53;100532.59;5082182;28;61938;-77
2022/04/06 06:38:00;;;;;;;;;3.00;2.00;;;;;15.99;48.71;100531.75;5081429;28;62591;-77
2022/04/06 06:40:27;;;;;;;;;1.25;0.75;;;;;16.05;48.69;100530.09;5082327;27;61798;-78
2022/04/06 06:42:53;;;;;;;;;1.75;1.75;;;;;16.13;48.35;100533.78;5082654;28;62019;-78
2022/04/06 06:45:18;;;;;;;;;5.00;2.00;;;;;16.24;47.99;100523.38;5081211;27;61815;-78
2022/04/06 06:47:45;;;;;;;;;1.00;1.00;;;;;16.32;47.55;100527.06;5082027;28;61829;-76
2022/04/06 06:50:13;;;;;;;;;1.00;1.00;;;;;16.41;47.86;100521.03;5081852;28;61726;-77
2022/04/06 06:52:38;;;;;;;;;2.25;1.00;;;;;16.41;47.80;100528.06;5097637;27;62118;-76
2022/04/06 06:55:05;;;;;;;;;2.75;1.00;;;;;16.34;47.62;100520.00;5081908;28;62154;-78
2022/04/06 06:57:32;;;;;;;;;2.25;1.00;;;;;16.45;47.72;100522.84;5088495;27;63938;-79
2022/04/06 06:59:57;;;;;;;;;3.00;2.00;;;;;16.44;47.44;100522.81;5078560;28;61799;-78
2022/04/06 07:02:23;;;;;;;;;3.00;1.00;;;;;16.47;47.27;100526.38;5096424;27;62011;-77
2022/04/06 07:04:49;;;;;;;;;5.25;2.00;;;;;16.54;47.38;100517.69;5074119;28;61870;-78
2022/04/06 07:07:14;;;;;;;;;1.25;1.00;;;;;16.58;47.16;100523.91;5060979;28;62565;-79
2022/04/06 07:09:40;;;;;;;;;2.00;2.00;;;;;16.73;47.13;100513.56;5061651;28;61891;-78
2022/04/06 07:12:06;;;;;;;;;2.00;2.00;;;;;16.83;46.87;100519.03;5065011;28;61671;-78
2022/04/06 07:14:32;;;;;;;;;2.00;2.00;;;;;16.90;46.95;100515.59;5077875;28;61692;-78
2022/04/06 07:16:58;;;;;;;;;2.25;1.50;;;;;16.89;46.82;100509.41;5079492;28;63241;-78
2022/04/06 07:19:24;;;;;;;;;1.00;1.00;;;;;16.98;46.30;100508.63;5081921;27;61766;-78
2022/04/06 07:21:50;;;;;;;;;1.00;1.00;;;;;17.02;46.51;100506.94;5080841;27;62174;-77
2022/04/06 07:24:15;;;;;;;;;2.00;2.00;;;;;16.99;46.17;100512.16;5079628;28;62003;-76
2022/04/06 07:26:41;;;;;;;;;3.00;2.00;;;;;17.04;46.47;100503.41;5079051;28;61941;-76
2022/04/06 07:29:11;;;;;;;;;5.00;3.00;;;;;17.09;46.06;100514.97;5079248;27;62031;-76
2022/04/06 07:31:37;;;;;;;;;2.50;1.50;;;;;17.23;46.02;100506.31;5079436;28;62098;-77
2022/04/06 07:34:02;;;;;;;;;4.00;3.00;;;;;17.24;45.72;100505.44;5080274;28;61878;-76
2022/04/06 07:36:27;;;;;;;;;2.25;1.00;;;;;17.19;45.46;100512.47;5079931;27;63720;-77
2022/04/06 07:38:53;;;;;;;;;2.75;1.75;;;;;17.35;45.81;100512.69;5079748;28;61913;-77
2022/04/06 07:41:19;;;;;;;;;2.75;1.00;;;;;17.36;45.34;100497.63;5079667;27;62290;-77
2022/04/06 07:43:45;;;;;;;;;2.00;2.00;;;;;17.52;45.49;100502.25;5080860;28;62145;-77
2022/04/06 07:46:11;;;;;;;;;3.25;2.50;;;;;17.60;45.13;100493.47;5079447;28;61754;-77
2022/04/06 07:48:39;;;;;;;;;3.00;3.00;;;;;17.64;45.11;100501.50;5080411;28;61881;-77
2022/04/06 07:51:05;;;;;;;;;3.75;1.75;;;;;17.66;44.47;100496.22;5095573;27;62022;-76
2022/04/06 07:53:30;;;;;;;;;0.75;0.75;;;;;17.79;44.64;100500.78;5079978;28;61864;-77
2022/04/06 07:55:55;;;;;;;;;2.50;2.00;;;;;17.79;44.25;100490.16;5079091;27;61795;-77
2022/04/06 07:58:21;;;;;;;;;3.00;2.00;;;;;17.89;44.61;100493.84;5075388;28;62206;-77
2022/04/06 08:00:46;;;;;;;;;1.50;1.50;;;;;17.95;44.43;100488.56;5079650;28;62170;-77
2022/04/06 08:03:12;;;;;;;;;1.75;1.50;;;;;18.07;44.30;100479.81;5080747;28;61980;-77
2022/04/06 08:05:37;;;;;;;;;2.50;1.00;;;;;18.16;43.70;100483.44;5078893;27;63228;-77
2022/04/06 08:08:03;;;;;;;;;2.00;1.00;;;;;18.17;43.87;100482.56;5079531;28;61941;-77
2022/04/06 08:10:30;;;;;;;;;4.00;1.00;;;;;18.30;43.84;100480.03;5081330;28;62016;-76
2022/04/06 08:12:55;;;;;;;;;1.00;1.00;;;;;18.41;43.60;100470.34;5082713;27;61733;-77
2022/04/06 08:15:21;;;;;;;;;1.00;1.00;;;;;18.37;43.06;100472.09;5082215;28;64968;-77
2022/04/06 08:17:47;;;;;;;;;1.00;1.00;;;;;18.38;43.09;100470.31;5084971;27;61795;-76
2022/04/06 08:20:14;;;;;;;;;1.00;1.00;;;;;18.47;43.25;100469.53;5084587;28;61946;-79
2022/04/06 08:22:42;;;;;;;;;1.25;1.25;;;;;18.47;42.92;100474.84;5084664;27;61920;-79
2022/04/06 08:25:08;;;;;;;;;1.00;1.00;;;;;18.37;43.06;100468.56;5083042;28;62868;-76
2022/04/06 08:27:36;;;;;;;;;1.00;1.00;;;;;18.34;43.27;100468.53;5084432;27;61883;-76
2022/04/06 08:30:04;;;;;;;;;0.00;0.00;;;;;18.26;42.91;100473.78;5083568;28;62000;-76
2022/04/06 08:32:30;;;;;;;;;1.25;1.00;;;;;18.43;43.18;100463.28;5082810;28;62077;-76
2022/04/06 08:34:55;;;;;;;;;1.50;1.50;;;;;18.54;43.39;100463.34;5081059;27;63714;-76
2022/04/06 08:37:21;;;;;;;;;1.00;1.00;;;;;18.63;42.62;100457.22;5082665;28;62155;-76
2022/04/06 08:39:47;;;;;;;;;1.50;0.00;;;;;18.57;42.70;100458.97;5087688;27;61826;-76
2022/04/06 08:42:14;;;;;;;;;2.25;1.00;;;;;18.67;42.73;100456.34;5081657;28;62050;-75
2022/04/06 08:44:39;;;;;;;;;2.00;0.00;;;;;18.69;42.62;100452.81;5082371;28;61787;-75
2022/04/06 08:47:06;;;;;;;;;1.00;1.00;;;;;18.81;42.95;100452.03;5082915;28;61772;-75
2022/04/06 08:49:34;;;;;;;;;2.50;1.00;;;;;18.88;42.59;100458.28;5080896;28;61843;-75
2022/04/06 08:52:03;;;;;;;;;1.00;1.00;;;;;18.82;41.80;100460.91;5082383;27;61901;-75
2022/04/06 08:54:28;;;;;;;;;1.25;0.00;;;;;18.83;42.27;100449.38;5082547;28;63142;-75
2022/04/06 08:56:54;;;;;;;;;3.00;1.00;;;;;18.91;42.31;100453.84;5082592;27;62028;-75
2022/04/06 08:59:20;;;;;;;;;1.00;1.00;;;;;18.95;41.99;100452.97;5083384;27;61892;-76
2022/04/06 09:01:46;;;;;;;;;1.75;1.00;;;;;18.91;42.02;100452.97;5082692;28;61947;-76
2022/04/06 09:04:12;;;;;;;;;2.00;2.00;;;;;19.04;42.08;100448.59;5082395;27;61788;-76
2022/04/06 09:06:44;;;;;;;;;0.00;0.00;;;;;19.14;41.79;100445.97;5098396;27;61905;-76
2022/04/06 09:09:10;;;;;;;;;4.00;1.00;;;;;19.18;41.22;100449.53;5081290;28;61976;-75
2022/04/06 09:11:45;;;;;;;;;0.50;0.50;;;;;19.20;41.24;100448.66;5082271;27;62007;-76
2022/04/06 09:14:12;;;;;;;;;2.25;2.00;;;;;19.24;41.03;100449.56;5080197;28;63237;-76
2022/04/06 09:16:38;;;;;;;;;1.00;1.00;;;;;19.28;41.65;100454.03;5082469;28;61917;-76
2022/04/06 09:19:12;;;;;;;;;1.00;1.00;;;;;19.37;41.17;100437.19;5082593;28;61813;-76
2022/04/06 09:21:46;;;;;;;;;2.50;1.25;;;;;19.47;41.00;100444.28;5081833;27;61967;-76
2022/04/06 09:24:16;;;;;;;;;0.50;0.50;;;;;19.66;40.77;100436.34;5081417;27;61863;-76
2022/04/06 09:26:42;;;;;;;;;1.00;1.00;;;;;19.72;40.68;100439.94;5079480;28;61872;-76
2022/04/06 09:29:11;;;;;;;;;2.00;1.00;;;;;19.45;40.70;100439.84;5082481;28;61797;-76
2022/04/06 09:31:40;;;;;;;;;2.50;1.50;;;;;19.54;40.84;100448.75;5081422;28;62301;-76
2022/04/06 09:34:12;;;;;;;;;2.00;0.75;;;;;19.52;40.40;100437.22;5082838;28;61883;-76
2022/04/06 09:36:38;;;;;;;;;0.00;0.00;;;;;19.25;40.29;100440.69;5083616;28;62153;-76
2022/04/06 09:39:05;;;;;;;;;1.75;1.50;;;;;19.27;40.54;100438.03;5081293;28;61862;-76
2022/04/06 09:41:31;;;;;;;;;1.75;0.75;;;;;19.33;40.24;100441.59;5081611;27;62151;-76
2022/04/06 09:47:38;;;;;;;;;2.00;2.00;;;;;19.41;40.82;100439.84;5088461;27;63615;-75
2022/04/06 09:50:24;;;;;;;;;3.00;1.75;;;;;19.67;40.07;100440.81;5082103;28;61889;-75
2022/04/06 09:52:51;;;;;;;;;1.50;1.50;;;;;19.55;39.92;100433.66;5063127;28;61912;-77
2022/04/06 09:55:19;;;;;;;;;2.25;0.75;;;;;19.54;40.39;100435.44;5097997;27;63661;-78
2022/04/06 09:57:50;;;;;;;;;0.00;0.00;;;;;19.66;39.97;100429.25;5089578;27;61987;-78
2022/04/06 10:00:26;;;;;;;;;1.00;1.00;;;;;19.70;40.16;100440.84;5082844;27;61764;-78
2022/04/06 10:03:13;;;;;;;;;2.25;1.50;;;;;19.74;40.20;100434.63;5082266;27;61953;-78
2022/04/06 10:05:40;;;;;;;;;1.75;1.75;;;;;19.59;39.98;100439.00;5096791;27;63662;-78
2022/04/06 10:08:10;;;;;;;;;2.50;2.00;;;;;19.62;40.49;100435.44;5082451;27;62126;-78
2022/04/06 10:10:40;;;;;;;;;1.00;1.00;;;;;19.59;40.21;100433.69;5081598;28;62060;-78
2022/04/06 10:13:10;;;;;;;;;0.50;0.50;;;;;19.63;40.02;100429.25;5080086;28;62101;-78
2022/04/06 10:15:40;;;;;;;;;2.25;1.00;;;;;19.69;39.71;100429.28;5078318;28;61876;-78
2022/04/06 10:18:06;;;;;;;;;1.00;1.00;;;;;19.68;39.73;100418.59;5080642;27;61862;-78
2022/04/06 10:20:43;;;;;;;;;0.00;0.00;;;;;19.76;39.71;100420.41;5081687;27;61782;-77
2022/04/06 10:23:50;;;;;;;;;5.50;1.00;;;;;19.75;39.83;100416.00;5063480;28;62246;-81
2022/04/06 10:26:35;;;;;;;;;3.00;2.00;;;;;19.73;39.33;100419.53;5059141;28;63882;-78
2022/04/06 10:29:00;;;;;;;;;1.50;1.00;;;;;19.71;38.80;100402.66;5061204;28;62009;-79
2022/04/06 10:31:29;;;;;;;;;3.00;1.00;;;;;19.84;39.64;100408.88;5062306;28;62133;-78
2022/04/06 10:34:22;;;;;;;;;1.50;1.50;;;;;19.83;39.79;100400.00;5061812;28;61790;-77
2022/04/06 10:37:11;;;;;;;;;1.75;1.75;;;;;19.55;39.84;100397.28;5077662;28;62072;-78
2022/04/06 10:39:51;;;;;;;;;1.75;1.75;;;;;19.73;40.15;100400.88;5080048;27;62095;-78
2022/04/06 10:42:33;;;;;;;;;1.50;1.00;;;;;19.67;39.85;100396.41;5082244;28;62069;-77
2022/04/06 10:44:59;;;;;;;;;2.75;2.00;;;;;19.61;40.15;100391.09;5082012;28;61873;-77
2022/04/06 10:47:25;;;;;;;;;1.00;1.00;;;;;19.49;40.48;100389.28;5082033;27;61840;-77
2022/04/06 10:50:15;;;;;;;;;2.00;2.00;;;;;19.46;40.66;100380.44;5098211;27;61878;-79
2022/04/06 10:52:42;;;;;;;;;2.75;1.00;;;;;19.49;40.82;100375.09;5081808;28;62122;-79
2022/04/06 10:55:29;;;;;;;;;2.25;2.00;;;;;19.45;41.12;100373.31;5082879;27;61844;-79
2022/04/06 10:57:57;;;;;;;;;2.25;2.00;;;;;19.38;41.21;100377.72;5081965;27;64535;-80
2022/04/06 11:00:22;;;;;;;;;3.25;3.00;;;;;19.44;41.02;100374.22;5082606;28;61842;-79
2022/04/06 11:02:53;;;;;;;;;4.00;3.00;;;;;19.39;41.31;100361.78;5081942;28;61865;-77
2022/04/06 11:05:45;;;;;;;;;2.00;2.00;;;;;19.53;41.30;100356.44;5081154;27;61968;-77
2022/04/06 11:11:45;;;;;;;;;3.00;3.00;;;;;20.12;40.55;100348.50;5082075;28;61862;-77
2022/04/06 11:14:27;;;;;;;;;4.00;3.00;;;;;20.38;40.33;100343.97;5082681;27;61836;-77
2022/04/06 11:16:53;;;;;;;;;7.50;3.75;;;;;20.24;40.30;100345.78;5081040;28;62091;-75
2022/04/06 11:19:18;;;;;;;;;2.25;2.25;;;;;20.12;40.59;100346.72;5080279;28;62045;-77
2022/04/06 11:21:50;;;;;;;;;3.50;2.75;;;;;20.15;40.32;100344.03;5078727;28;61824;-77
2022/04/06 11:24:17;;;;;;;;;6.25;4.25;;;;;20.23;40.57;100339.56;5080192;27;62123;-78
2022/04/06 11:26:43;;;;;;;;;3.50;3.50;;;;;20.37;40.17;100317.31;5097633;27;61938;-77
2022/04/06 11:29:08;;;;;;;;;4.25;2.75;;;;;20.47;40.11;100318.19;5081103;27;62661;-77
2022/04/06 11:31:33;;;;;;;;;2.00;1.00;;;;;20.53;40.12;100308.38;5096907;27;61845;-77
2022/04/06 11:33:59;;;;;;;;;3.75;3.25;;;;;20.66;40.27;100308.38;5080691;28;61989;-77